sensor_id;sensor_type;location;lat;lon;timestamp;P1;durP1;ratioP1;P2;durP2;ratioP2
13580;SDS011;6861;46.170;7.222;2023-01-05T00:01:01;6.30;;;4.47;;
13580;SDS011;6861;46.170;7.222;2023-01-05T00:03:30;7.07;;;5.10;;
13580;SDS011;6861;46.170;7.222;2023-01-05T00:05:58;7.18;;;4.78;;
13580;SDS011;6861;46.170;7.222;2023-01-05T00:08:28;8.43;;;4.78;;
13580;SDS011;6861;46.170;7.222;2023-01-05T00:11:03;6.82;;;4.82;;
13580;SDS011;6861;46.170;7.222;2023-01-05T00:13:49;8.90;;;4.95;;
13580;SDS011;6861;46.170;7.222;2023-01-05T00:16:34;6.13;;;4.55;;
13580;SDS011;6861;46.170;7.222;2023-01-05T00:19:20;7.43;;;5.40;;
13580;SDS011;6861;46.170;7.222;2023-01-05T00:22:07;6.32;;;4.95;;
13580;SDS011;6861;46.170;7.222;2023-01-05T00:25:02;10.45;;;4.93;;
13580;SDS011;6861;46.170;7.222;2023-01-05T00:27:38;7.68;;;5.00;;
13580;SDS011;6861;46.170;7.222;2023-01-05T00:30:07;6.75;;;4.55;;
13580;SDS011;6861;46.170;7.222;2023-01-05T00:32:39;7.55;;;4.75;;
13580;SDS011;6861;46.170;7.222;2023-01-05T00:35:08;7.18;;;4.80;;
13580;SDS011;6861;46.170;7.222;2023-01-05T00:37:37;11.15;;;5.05;;
13580;SDS011;6861;46.170;7.222;2023-01-05T00:40:07;7.50;;;4.75;;
13580;SDS011;6861;46.170;7.222;2023-01-05T00:42:37;23.25;;;9.70;;
13580;SDS011;6861;46.170;7.222;2023-01-05T00:45:06;17.63;;;8.13;;
13580;SDS011;6861;46.170;7.222;2023-01-05T00:47:36;11.85;;;6.30;;
13580;SDS011;6861;46.170;7.222;2023-01-05T00:50:05;63.50;;;22.08;;
13580;SDS011;6861;46.170;7.222;2023-01-05T00:52:34;22.13;;;9.73;;
13580;SDS011;6861;46.170;7.222;2023-01-05T00:55:02;12.35;;;6.88;;
13580;SDS011;6861;46.170;7.222;2023-01-05T00:57:32;12.35;;;7.18;;
13580;SDS011;6861;46.170;7.222;2023-01-05T01:00:00;9.25;;;5.72;;
13580;SDS011;6861;46.170;7.222;2023-01-05T01:02:28;10.50;;;5.68;;
13580;SDS011;6861;46.170;7.222;2023-01-05T01:04:56;7.47;;;5.35;;
13580;SDS011;6861;46.170;7.222;2023-01-05T01:07:25;9.32;;;5.05;;
13580;SDS011;6861;46.170;7.222;2023-01-05T01:09:53;7.75;;;4.82;;
13580;SDS011;6861;46.170;7.222;2023-01-05T01:12:21;5.93;;;4.70;;
13580;SDS011;6861;46.170;7.222;2023-01-05T01:14:51;6.30;;;4.55;;
13580;SDS011;6861;46.170;7.222;2023-01-05T01:17:19;7.03;;;5.22;;
13580;SDS011;6861;46.170;7.222;2023-01-05T01:19:47;9.40;;;5.25;;
13580;SDS011;6861;46.170;7.222;2023-01-05T01:22:15;11.13;;;5.85;;
13580;SDS011;6861;46.170;7.222;2023-01-05T01:24:43;15.10;;;6.93;;
13580;SDS011;6861;46.170;7.222;2023-01-05T01:27:11;14.27;;;7.28;;
13580;SDS011;6861;46.170;7.222;2023-01-05T01:29:39;10.77;;;5.55;;
13580;SDS011;6861;46.170;7.222;2023-01-05T01:32:09;7.30;;;5.00;;
13580;SDS011;6861;46.170;7.222;2023-01-05T01:34:37;6.32;;;4.85;;
13580;SDS011;6861;46.170;7.222;2023-01-05T01:37:05;9.65;;;5.22;;
13580;SDS011;6861;46.170;7.222;2023-01-05T01:39:33;13.35;;;7.50;;
13580;SDS011;6861;46.170;7.222;2023-01-05T01:42:01;12.52;;;6.75;;
13580;SDS011;6861;46.170;7.222;2023-01-05T01:44:49;9.07;;;5.80;;
13580;SDS011;6861;46.170;7.222;2023-01-05T01:47:25;8.70;;;5.63;;
13580;SDS011;6861;46.170;7.222;2023-01-05T01:49:58;7.05;;;5.15;;
13580;SDS011;6861;46.170;7.222;2023-01-05T01:52:30;7.88;;;4.90;;
13580;SDS011;6861;46.170;7.222;2023-01-05T01:55:01;6.50;;;4.93;;
13580;SDS011;6861;46.170;7.222;2023-01-05T01:57:32;8.48;;;5.68;;
13580;SDS011;6861;46.170;7.222;2023-01-05T02:00:03;7.07;;;5.28;;
13580;SDS011;6861;46.170;7.222;2023-01-05T02:02:34;7.63;;;5.28;;
13580;SDS011;6861;46.170;7.222;2023-01-05T02:05:03;7.68;;;4.75;;
13580;SDS011;6861;46.170;7.222;2023-01-05T02:07:36;9.20;;;5.30;;
13580;SDS011;6861;46.170;7.222;2023-01-05T02:10:10;7.10;;;5.20;;
13580;SDS011;6861;46.170;7.222;2023-01-05T02:12:41;6.72;;;5.03;;
13580;SDS011;6861;46.170;7.222;2023-01-05T02:15:23;6.15;;;4.65;;
13580;SDS011;6861;46.170;7.222;2023-01-05T02:18:07;7.30;;;4.60;;
13580;SDS011;6861;46.170;7.222;2023-01-05T02:21:00;5.80;;;4.75;;
13580;SDS011;6861;46.170;7.222;2023-01-05T02:24:03;5.78;;;4.90;;
13580;SDS011;6861;46.170;7.222;2023-01-05T02:33:17;6.28;;;4.78;;
13580;SDS011;6861;46.170;7.222;2023-01-05T02:35:54;6.10;;;4.97;;
13580;SDS011;6861;46.170;7.222;2023-01-05T02:38:26;6.22;;;4.78;;
13580;SDS011;6861;46.170;7.222;2023-01-05T02:41:03;6.30;;;4.18;;
13580;SDS011;6861;46.170;7.222;2023-01-05T02:43:37;6.63;;;4.65;;
13580;SDS011;6861;46.170;7.222;2023-01-05T02:46:06;11.68;;;4.78;;
13580;SDS011;6861;46.170;7.222;2023-01-05T02:48:35;5.95;;;3.97;;
13580;SDS011;6861;46.170;7.222;2023-01-05T02:51:06;6.45;;;4.63;;
13580;SDS011;6861;46.170;7.222;2023-01-05T02:53:40;6.82;;;4.78;;
13580;SDS011;6861;46.170;7.222;2023-01-05T02:56:14;7.70;;;4.80;;
13580;SDS011;6861;46.170;7.222;2023-01-05T02:58:46;7.03;;;4.93;;
13580;SDS011;6861;46.170;7.222;2023-01-05T03:01:21;7.20;;;4.80;;
13580;SDS011;6861;46.170;7.222;2023-01-05T03:03:54;6.43;;;5.07;;
13580;SDS011;6861;46.170;7.222;2023-01-05T03:06:27;7.78;;;5.00;;
13580;SDS011;6861;46.170;7.222;2023-01-05T03:08:59;7.32;;;5.10;;
13580;SDS011;6861;46.170;7.222;2023-01-05T03:11:32;7.22;;;4.72;;
13580;SDS011;6861;46.170;7.222;2023-01-05T03:14:22;7.35;;;4.30;;
13580;SDS011;6861;46.170;7.222;2023-01-05T03:16:55;7.78;;;5.72;;
13580;SDS011;6861;46.170;7.222;2023-01-05T03:19:27;7.28;;;4.85;;
13580;SDS011;6861;46.170;7.222;2023-01-05T03:22:06;7.32;;;4.63;;
13580;SDS011;6861;46.170;7.222;2023-01-05T03:24:57;6.43;;;5.05;;
13580;SDS011;6861;46.170;7.222;2023-01-05T03:27:43;6.30;;;4.30;;
13580;SDS011;6861;46.170;7.222;2023-01-05T03:30:35;5.93;;;4.28;;
13580;SDS011;6861;46.170;7.222;2023-01-05T03:33:29;5.88;;;4.72;;
13580;SDS011;6861;46.170;7.222;2023-01-05T03:36:22;5.90;;;4.88;;
13580;SDS011;6861;46.170;7.222;2023-01-05T03:38:55;6.93;;;5.10;;
13580;SDS011;6861;46.170;7.222;2023-01-05T03:41:28;6.97;;;5.15;;
13580;SDS011;6861;46.170;7.222;2023-01-05T03:43:57;6.20;;;4.78;;
13580;SDS011;6861;46.170;7.222;2023-01-05T03:46:26;8.25;;;5.13;;
13580;SDS011;6861;46.170;7.222;2023-01-05T03:48:54;7.65;;;5.20;;
13580;SDS011;6861;46.170;7.222;2023-01-05T03:51:24;6.85;;;4.40;;
13580;SDS011;6861;46.170;7.222;2023-01-05T03:53:52;6.82;;;4.93;;
13580;SDS011;6861;46.170;7.222;2023-01-05T03:56:20;5.97;;;4.75;;
13580;SDS011;6861;46.170;7.222;2023-01-05T03:58:48;7.82;;;4.65;;
13580;SDS011;6861;46.170;7.222;2023-01-05T04:01:16;8.88;;;4.65;;
13580;SDS011;6861;46.170;7.222;2023-01-05T04:03:44;6.40;;;4.90;;
13580;SDS011;6861;46.170;7.222;2023-01-05T04:06:12;8.32;;;4.90;;
13580;SDS011;6861;46.170;7.222;2023-01-05T04:08:42;5.70;;;4.75;;
13580;SDS011;6861;46.170;7.222;2023-01-05T04:11:11;5.70;;;4.70;;
13580;SDS011;6861;46.170;7.222;2023-01-05T04:13:40;6.93;;;5.13;;
13580;SDS011;6861;46.170;7.222;2023-01-05T04:16:08;7.38;;;5.00;;
13580;SDS011;6861;46.170;7.222;2023-01-05T04:18:37;7.07;;;4.78;;
13580;SDS011;6861;46.170;7.222;2023-01-05T04:21:05;6.90;;;4.90;;
13580;SDS011;6861;46.170;7.222;2023-01-05T04:23:34;9.40;;;5.25;;
13580;SDS011;6861;46.170;7.222;2023-01-05T04:26:03;6.22;;;4.70;;
13580;SDS011;6861;46.170;7.222;2023-01-05T04:28:32;6.90;;;4.70;;
13580;SDS011;6861;46.170;7.222;2023-01-05T04:31:00;7.68;;;5.35;;
13580;SDS011;6861;46.170;7.222;2023-01-05T04:33:28;8.55;;;6.55;;
13580;SDS011;6861;46.170;7.222;2023-01-05T04:35:56;8.13;;;7.03;;
13580;SDS011;6861;46.170;7.222;2023-01-05T04:38:24;7.10;;;5.43;;
13580;SDS011;6861;46.170;7.222;2023-01-05T04:40:52;6.57;;;4.97;;
13580;SDS011;6861;46.170;7.222;2023-01-05T04:43:22;6.22;;;5.38;;
13580;SDS011;6861;46.170;7.222;2023-01-05T04:45:50;6.30;;;5.25;;
13580;SDS011;6861;46.170;7.222;2023-01-05T04:48:18;5.90;;;4.75;;
13580;SDS011;6861;46.170;7.222;2023-01-05T04:50:50;5.65;;;4.60;;
13580;SDS011;6861;46.170;7.222;2023-01-05T04:53:20;5.72;;;4.80;;
13580;SDS011;6861;46.170;7.222;2023-01-05T04:55:48;7.82;;;5.60;;
13580;SDS011;6861;46.170;7.222;2023-01-05T04:58:17;7.32;;;5.30;;
13580;SDS011;6861;46.170;7.222;2023-01-05T05:00:46;6.82;;;5.57;;
13580;SDS011;6861;46.170;7.222;2023-01-05T05:03:14;7.88;;;5.28;;
13580;SDS011;6861;46.170;7.222;2023-01-05T05:05:43;8.00;;;5.22;;
13580;SDS011;6861;46.170;7.222;2023-01-05T05:08:11;6.18;;;4.90;;
13580;SDS011;6861;46.170;7.222;2023-01-05T05:10:40;6.28;;;4.63;;
13580;SDS011;6861;46.170;7.222;2023-01-05T05:13:08;6.18;;;4.90;;
13580;SDS011;6861;46.170;7.222;2023-01-05T05:15:36;7.35;;;5.38;;
13580;SDS011;6861;46.170;7.222;2023-01-05T05:18:06;7.60;;;5.20;;
13580;SDS011;6861;46.170;7.222;2023-01-05T05:20:35;7.22;;;5.07;;
13580;SDS011;6861;46.170;7.222;2023-01-05T05:23:04;5.88;;;5.00;;
13580;SDS011;6861;46.170;7.222;2023-01-05T05:25:32;7.28;;;5.22;;
13580;SDS011;6861;46.170;7.222;2023-01-05T05:28:00;6.15;;;4.80;;
13580;SDS011;6861;46.170;7.222;2023-01-05T05:30:28;8.38;;;4.75;;
13580;SDS011;6861;46.170;7.222;2023-01-05T05:32:56;6.63;;;4.95;;
13580;SDS011;6861;46.170;7.222;2023-01-05T05:35:25;8.23;;;4.90;;
13580;SDS011;6861;46.170;7.222;2023-01-05T05:37:53;7.20;;;5.30;;
13580;SDS011;6861;46.170;7.222;2023-01-05T05:40:22;6.28;;;4.82;;
13580;SDS011;6861;46.170;7.222;2023-01-05T05:42:51;7.18;;;5.18;;
13580;SDS011;6861;46.170;7.222;2023-01-05T05:45:19;5.15;;;4.55;;
13580;SDS011;6861;46.170;7.222;2023-01-05T05:47:47;6.10;;;4.95;;
13580;SDS011;6861;46.170;7.222;2023-01-05T05:50:15;5.90;;;4.10;;
13580;SDS011;6861;46.170;7.222;2023-01-05T05:52:45;5.05;;;4.20;;
13580;SDS011;6861;46.170;7.222;2023-01-05T05:55:14;7.18;;;4.85;;
13580;SDS011;6861;46.170;7.222;2023-01-05T05:57:42;5.70;;;4.40;;
13580;SDS011;6861;46.170;7.222;2023-01-05T06:00:10;5.13;;;4.53;;
13580;SDS011;6861;46.170;7.222;2023-01-05T06:02:39;6.95;;;4.93;;
13580;SDS011;6861;46.170;7.222;2023-01-05T06:05:08;7.05;;;4.78;;
13580;SDS011;6861;46.170;7.222;2023-01-05T06:07:36;5.53;;;4.40;;
13580;SDS011;6861;46.170;7.222;2023-01-05T06:10:06;6.68;;;4.75;;
13580;SDS011;6861;46.170;7.222;2023-01-05T06:12:35;5.60;;;4.72;;
13580;SDS011;6861;46.170;7.222;2023-01-05T06:15:03;6.05;;;4.93;;
13580;SDS011;6861;46.170;7.222;2023-01-05T06:17:32;6.55;;;4.70;;
13580;SDS011;6861;46.170;7.222;2023-01-05T06:20:00;8.15;;;5.20;;
13580;SDS011;6861;46.170;7.222;2023-01-05T06:22:29;10.00;;;5.90;;
13580;SDS011;6861;46.170;7.222;2023-01-05T06:24:57;8.05;;;5.10;;
13580;SDS011;6861;46.170;7.222;2023-01-05T06:27:26;8.20;;;5.63;;
13580;SDS011;6861;46.170;7.222;2023-01-05T06:29:54;6.93;;;4.97;;
13580;SDS011;6861;46.170;7.222;2023-01-05T06:32:22;7.55;;;4.97;;
13580;SDS011;6861;46.170;7.222;2023-01-05T06:34:50;5.57;;;4.32;;
13580;SDS011;6861;46.170;7.222;2023-01-05T06:37:18;7.47;;;4.80;;
13580;SDS011;6861;46.170;7.222;2023-01-05T06:39:47;7.35;;;5.20;;
13580;SDS011;6861;46.170;7.222;2023-01-05T06:42:15;7.65;;;4.65;;
13580;SDS011;6861;46.170;7.222;2023-01-05T06:44:50;7.43;;;4.72;;
13580;SDS011;6861;46.170;7.222;2023-01-05T06:47:18;9.18;;;5.60;;
13580;SDS011;6861;46.170;7.222;2023-01-05T06:49:46;9.05;;;5.32;;
13580;SDS011;6861;46.170;7.222;2023-01-05T06:52:14;8.23;;;5.00;;
13580;SDS011;6861;46.170;7.222;2023-01-05T06:54:42;10.60;;;6.75;;
13580;SDS011;6861;46.170;7.222;2023-01-05T06:57:10;16.02;;;9.18;;
13580;SDS011;6861;46.170;7.222;2023-01-05T06:59:38;33.13;;;19.73;;
13580;SDS011;6861;46.170;7.222;2023-01-05T07:02:09;16.38;;;10.07;;
13580;SDS011;6861;46.170;7.222;2023-01-05T07:04:40;10.38;;;7.22;;
13580;SDS011;6861;46.170;7.222;2023-01-05T07:07:09;10.13;;;7.28;;
13580;SDS011;6861;46.170;7.222;2023-01-05T07:09:38;8.05;;;5.50;;
13580;SDS011;6861;46.170;7.222;2023-01-05T07:12:07;6.53;;;5.38;;
13580;SDS011;6861;46.170;7.222;2023-01-05T07:14:35;8.95;;;5.15;;
13580;SDS011;6861;46.170;7.222;2023-01-05T07:17:03;5.93;;;4.82;;
13580;SDS011;6861;46.170;7.222;2023-01-05T07:19:33;7.07;;;5.18;;
13580;SDS011;6861;46.170;7.222;2023-01-05T07:22:01;8.57;;;4.80;;
13580;SDS011;6861;46.170;7.222;2023-01-05T07:24:29;6.38;;;5.30;;
13580;SDS011;6861;46.170;7.222;2023-01-05T07:26:57;12.50;;;7.68;;
13580;SDS011;6861;46.170;7.222;2023-01-05T07:29:34;7.47;;;5.78;;
13580;SDS011;6861;46.170;7.222;2023-01-05T07:32:02;8.38;;;5.40;;
13580;SDS011;6861;46.170;7.222;2023-01-05T07:34:32;5.93;;;4.85;;
13580;SDS011;6861;46.170;7.222;2023-01-05T07:37:00;7.70;;;5.25;;
13580;SDS011;6861;46.170;7.222;2023-01-05T07:39:28;9.13;;;5.20;;
13580;SDS011;6861;46.170;7.222;2023-01-05T07:41:56;7.03;;;4.82;;
13580;SDS011;6861;46.170;7.222;2023-01-05T07:44:25;7.00;;;5.13;;
13580;SDS011;6861;46.170;7.222;2023-01-05T07:46:53;10.10;;;7.25;;
13580;SDS011;6861;46.170;7.222;2023-01-05T07:49:21;7.53;;;5.82;;
13580;SDS011;6861;46.170;7.222;2023-01-05T07:51:50;6.63;;;5.18;;
13580;SDS011;6861;46.170;7.222;2023-01-05T07:54:18;8.30;;;4.63;;
13580;SDS011;6861;46.170;7.222;2023-01-05T07:56:47;8.02;;;4.72;;
13580;SDS011;6861;46.170;7.222;2023-01-05T07:59:15;5.50;;;4.55;;
13580;SDS011;6861;46.170;7.222;2023-01-05T08:01:43;6.15;;;4.93;;
13580;SDS011;6861;46.170;7.222;2023-01-05T08:04:11;7.60;;;5.47;;
13580;SDS011;6861;46.170;7.222;2023-01-05T08:06:40;7.38;;;5.35;;
13580;SDS011;6861;46.170;7.222;2023-01-05T08:09:09;8.98;;;7.95;;
13580;SDS011;6861;46.170;7.222;2023-01-05T08:12:00;6.68;;;5.05;;
13580;SDS011;6861;46.170;7.222;2023-01-05T08:14:28;7.05;;;4.72;;
13580;SDS011;6861;46.170;7.222;2023-01-05T08:16:56;7.03;;;4.53;;
13580;SDS011;6861;46.170;7.222;2023-01-05T08:19:24;6.15;;;4.60;;
13580;SDS011;6861;46.170;7.222;2023-01-05T08:21:52;5.85;;;4.78;;
13580;SDS011;6861;46.170;7.222;2023-01-05T08:24:22;7.80;;;4.43;;
13580;SDS011;6861;46.170;7.222;2023-01-05T08:26:50;6.32;;;4.50;;
13580;SDS011;6861;46.170;7.222;2023-01-05T08:29:18;5.53;;;4.13;;
13580;SDS011;6861;46.170;7.222;2023-01-05T08:31:46;7.60;;;4.93;;
13580;SDS011;6861;46.170;7.222;2023-01-05T08:34:14;5.15;;;4.07;;
13580;SDS011;6861;46.170;7.222;2023-01-05T08:36:43;8.63;;;4.50;;
13580;SDS011;6861;46.170;7.222;2023-01-05T08:39:11;4.45;;;3.83;;
13580;SDS011;6861;46.170;7.222;2023-01-05T08:41:41;6.65;;;5.00;;
13580;SDS011;6861;46.170;7.222;2023-01-05T08:44:10;8.88;;;4.88;;
13580;SDS011;6861;46.170;7.222;2023-01-05T08:46:38;6.97;;;5.13;;
13580;SDS011;6861;46.170;7.222;2023-01-05T08:49:07;7.50;;;4.75;;
13580;SDS011;6861;46.170;7.222;2023-01-05T08:51:36;9.20;;;5.70;;
13580;SDS011;6861;46.170;7.222;2023-01-05T08:54:05;5.32;;;4.30;;
13580;SDS011;6861;46.170;7.222;2023-01-05T08:56:33;5.97;;;4.50;;
13580;SDS011;6861;46.170;7.222;2023-01-05T08:59:05;6.22;;;4.28;;
13580;SDS011;6861;46.170;7.222;2023-01-05T09:01:34;5.28;;;4.10;;
13580;SDS011;6861;46.170;7.222;2023-01-05T09:04:02;5.35;;;4.32;;
13580;SDS011;6861;46.170;7.222;2023-01-05T09:06:31;6.35;;;4.32;;
13580;SDS011;6861;46.170;7.222;2023-01-05T09:08:59;6.03;;;5.22;;
13580;SDS011;6861;46.170;7.222;2023-01-05T09:11:27;6.45;;;4.18;;
13580;SDS011;6861;46.170;7.222;2023-01-05T09:13:55;16.85;;;12.63;;
13580;SDS011;6861;46.170;7.222;2023-01-05T09:16:27;7.10;;;5.43;;
13580;SDS011;6861;46.170;7.222;2023-01-05T09:19:16;6.18;;;4.53;;
13580;SDS011;6861;46.170;7.222;2023-01-05T09:21:45;8.13;;;4.88;;
13580;SDS011;6861;46.170;7.222;2023-01-05T09:24:13;8.25;;;6.10;;
13580;SDS011;6861;46.170;7.222;2023-01-05T09:26:41;8.82;;;5.22;;
13580;SDS011;6861;46.170;7.222;2023-01-05T09:29:09;6.90;;;4.53;;
13580;SDS011;6861;46.170;7.222;2023-01-05T09:31:40;6.90;;;4.80;;
13580;SDS011;6861;46.170;7.222;2023-01-05T09:34:08;6.10;;;5.03;;
13580;SDS011;6861;46.170;7.222;2023-01-05T09:36:37;6.18;;;4.72;;
13580;SDS011;6861;46.170;7.222;2023-01-05T09:39:05;5.68;;;4.32;;
13580;SDS011;6861;46.170;7.222;2023-01-05T09:41:34;6.28;;;4.55;;
13580;SDS011;6861;46.170;7.222;2023-01-05T09:44:05;5.80;;;4.40;;
13580;SDS011;6861;46.170;7.222;2023-01-05T09:46:42;8.32;;;5.05;;
13580;SDS011;6861;46.170;7.222;2023-01-05T09:49:14;5.28;;;4.00;;
13580;SDS011;6861;46.170;7.222;2023-01-05T09:51:43;9.50;;;5.05;;
13580;SDS011;6861;46.170;7.222;2023-01-05T09:54:13;6.75;;;4.32;;
13580;SDS011;6861;46.170;7.222;2023-01-05T09:56:43;5.93;;;4.15;;
13580;SDS011;6861;46.170;7.222;2023-01-05T09:59:33;5.88;;;4.15;;
13580;SDS011;6861;46.170;7.222;2023-01-05T10:02:08;5.30;;;4.25;;
13580;SDS011;6861;46.170;7.222;2023-01-05T10:04:46;6.43;;;4.40;;
13580;SDS011;6861;46.170;7.222;2023-01-05T10:07:18;5.30;;;3.90;;
13580;SDS011;6861;46.170;7.222;2023-01-05T10:09:55;5.07;;;3.72;;
13580;SDS011;6861;46.170;7.222;2023-01-05T10:12:28;6.95;;;6.25;;
13580;SDS011;6861;46.170;7.222;2023-01-05T10:15:17;6.32;;;5.55;;
13580;SDS011;6861;46.170;7.222;2023-01-05T10:17:48;7.47;;;5.00;;
13580;SDS011;6861;46.170;7.222;2023-01-05T10:20:17;19.67;;;8.30;;
13580;SDS011;6861;46.170;7.222;2023-01-05T10:22:57;5.38;;;3.83;;
13580;SDS011;6861;46.170;7.222;2023-01-05T10:25:32;7.05;;;4.22;;
13580;SDS011;6861;46.170;7.222;2023-01-05T10:28:08;6.63;;;4.93;;
13580;SDS011;6861;46.170;7.222;2023-01-05T10:30:53;10.38;;;6.10;;
13580;SDS011;6861;46.170;7.222;2023-01-05T10:33:30;6.15;;;5.03;;
13580;SDS011;6861;46.170;7.222;2023-01-05T10:36:23;7.30;;;5.07;;
13580;SDS011;6861;46.170;7.222;2023-01-05T10:39:24;6.00;;;4.45;;
13580;SDS011;6861;46.170;7.222;2023-01-05T10:42:01;6.22;;;4.20;;
13580;SDS011;6861;46.170;7.222;2023-01-05T10:44:43;6.95;;;4.57;;
13580;SDS011;6861;46.170;7.222;2023-01-05T10:47:19;5.68;;;4.28;;
13580;SDS011;6861;46.170;7.222;2023-01-05T10:49:51;7.88;;;4.93;;
13580;SDS011;6861;46.170;7.222;2023-01-05T10:52:20;7.88;;;5.20;;
13580;SDS011;6861;46.170;7.222;2023-01-05T10:54:50;5.82;;;4.05;;
13580;SDS011;6861;46.170;7.222;2023-01-05T10:57:30;8.02;;;5.00;;
13580;SDS011;6861;46.170;7.222;2023-01-05T11:00:09;5.53;;;4.05;;
13580;SDS011;6861;46.170;7.222;2023-01-05T11:02:40;5.65;;;4.60;;
13580;SDS011;6861;46.170;7.222;2023-01-05T11:05:26;5.82;;;4.28;;
13580;SDS011;6861;46.170;7.222;2023-01-05T11:07:58;5.70;;;4.05;;
13580;SDS011;6861;46.170;7.222;2023-01-05T11:10:28;5.90;;;4.85;;
13580;SDS011;6861;46.170;7.222;2023-01-05T11:13:00;7.28;;;5.00;;
13580;SDS011;6861;46.170;7.222;2023-01-05T11:15:32;7.82;;;4.88;;
13580;SDS011;6861;46.170;7.222;2023-01-05T11:18:06;9.43;;;5.97;;
13580;SDS011;6861;46.170;7.222;2023-01-05T11:21:07;8.70;;;5.53;;
13580;SDS011;6861;46.170;7.222;2023-01-05T11:23:40;5.70;;;3.72;;
13580;SDS011;6861;46.170;7.222;2023-01-05T11:26:10;5.63;;;3.90;;
13580;SDS011;6861;46.170;7.222;2023-01-05T11:29:02;7.07;;;4.38;;
13580;SDS011;6861;46.170;7.222;2023-01-05T11:31:45;6.10;;;4.13;;
13580;SDS011;6861;46.170;7.222;2023-01-05T11:34:21;4.80;;;4.05;;
13580;SDS011;6861;46.170;7.222;2023-01-05T11:37:16;6.05;;;4.60;;
13580;SDS011;6861;46.170;7.222;2023-01-05T11:39:51;11.52;;;6.38;;
13580;SDS011;6861;46.170;7.222;2023-01-05T11:42:27;5.78;;;4.28;;
13580;SDS011;6861;46.170;7.222;2023-01-05T11:44:58;4.63;;;4.05;;
13580;SDS011;6861;46.170;7.222;2023-01-05T11:47:28;11.15;;;4.35;;
13580;SDS011;6861;46.170;7.222;2023-01-05T11:50:14;4.65;;;3.90;;
13580;SDS011;6861;46.170;7.222;2023-01-05T11:52:48;7.10;;;4.35;;
13580;SDS011;6861;46.170;7.222;2023-01-05T11:55:21;4.63;;;3.67;;
13580;SDS011;6861;46.170;7.222;2023-01-05T11:58:09;5.65;;;3.78;;
13580;SDS011;6861;46.170;7.222;2023-01-05T12:00:43;9.05;;;5.65;;
13580;SDS011;6861;46.170;7.222;2023-01-05T12:03:27;6.82;;;4.68;;
13580;SDS011;6861;46.170;7.222;2023-01-05T12:06:16;8.48;;;5.60;;
13580;SDS011;6861;46.170;7.222;2023-01-05T12:08:59;7.13;;;4.97;;
13580;SDS011;6861;46.170;7.222;2023-01-05T12:11:34;5.40;;;4.50;;
13580;SDS011;6861;46.170;7.222;2023-01-05T12:17:06;7.05;;;4.88;;
13580;SDS011;6861;46.170;7.222;2023-01-05T12:25:43;5.28;;;3.85;;
13580;SDS011;6861;46.170;7.222;2023-01-05T12:28:25;4.88;;;3.85;;
13580;SDS011;6861;46.170;7.222;2023-01-05T12:31:12;7.00;;;4.18;;
13580;SDS011;6861;46.170;7.222;2023-01-05T12:34:24;7.32;;;4.47;;
13580;SDS011;6861;46.170;7.222;2023-01-05T12:37:06;5.00;;;3.95;;
13580;SDS011;6861;46.170;7.222;2023-01-05T12:39:57;5.88;;;4.13;;
13580;SDS011;6861;46.170;7.222;2023-01-05T12:42:46;7.18;;;3.60;;
13580;SDS011;6861;46.170;7.222;2023-01-05T12:48:18;3.80;;;3.40;;
13580;SDS011;6861;46.170;7.222;2023-01-05T12:50:53;4.65;;;3.45;;
13580;SDS011;6861;46.170;7.222;2023-01-05T12:53:29;4.57;;;3.63;;
13580;SDS011;6861;46.170;7.222;2023-01-05T12:56:08;6.45;;;3.33;;
13580;SDS011;6861;46.170;7.222;2023-01-05T12:58:46;3.90;;;3.17;;
13580;SDS011;6861;46.170;7.222;2023-01-05T13:01:31;4.53;;;3.15;;
13580;SDS011;6861;46.170;7.222;2023-01-05T13:04:04;5.63;;;3.15;;
13580;SDS011;6861;46.170;7.222;2023-01-05T13:07:09;4.07;;;3.10;;
13580;SDS011;6861;46.170;7.222;2023-01-05T13:09:43;3.80;;;3.10;;
13580;SDS011;6861;46.170;7.222;2023-01-05T13:12:14;4.90;;;3.00;;
13580;SDS011;6861;46.170;7.222;2023-01-05T13:14:46;3.38;;;2.40;;
13580;SDS011;6861;46.170;7.222;2023-01-05T13:17:22;3.15;;;2.50;;
13580;SDS011;6861;46.170;7.222;2023-01-05T13:19:55;4.15;;;3.35;;
13580;SDS011;6861;46.170;7.222;2023-01-05T13:22:30;3.47;;;2.85;;
13580;SDS011;6861;46.170;7.222;2023-01-05T13:25:02;8.60;;;3.90;;
13580;SDS011;6861;46.170;7.222;2023-01-05T13:27:39;5.22;;;3.38;;
13580;SDS011;6861;46.170;7.222;2023-01-05T13:30:12;4.80;;;3.03;;
13580;SDS011;6861;46.170;7.222;2023-01-05T13:33:03;3.60;;;2.63;;
13580;SDS011;6861;46.170;7.222;2023-01-05T13:35:54;3.75;;;2.10;;
13580;SDS011;6861;46.170;7.222;2023-01-05T13:41:43;3.25;;;2.70;;
13580;SDS011;6861;46.170;7.222;2023-01-05T13:44:48;3.05;;;2.40;;
13580;SDS011;6861;46.170;7.222;2023-01-05T13:48:12;3.72;;;2.17;;
13580;SDS011;6861;46.170;7.222;2023-01-05T13:54:15;2.55;;;2.10;;
13580;SDS011;6861;46.170;7.222;2023-01-05T13:56:45;3.08;;;1.80;;
13580;SDS011;6861;46.170;7.222;2023-01-05T13:59:23;3.03;;;2.10;;
13580;SDS011;6861;46.170;7.222;2023-01-05T14:02:21;3.97;;;2.50;;
13580;SDS011;6861;46.170;7.222;2023-01-05T14:04:56;3.50;;;2.55;;
13580;SDS011;6861;46.170;7.222;2023-01-05T14:07:25;3.15;;;1.83;;
13580;SDS011;6861;46.170;7.222;2023-01-05T14:09:54;1.23;;;1.00;;
13580;SDS011;6861;46.170;7.222;2023-01-05T14:12:25;2.53;;;1.50;;
13580;SDS011;6861;46.170;7.222;2023-01-05T14:18:06;3.05;;;1.38;;
13580;SDS011;6861;46.170;7.222;2023-01-05T14:20:37;3.13;;;1.25;;
13580;SDS011;6861;46.170;7.222;2023-01-05T14:32:25;2.78;;;1.40;;
13580;SDS011;6861;46.170;7.222;2023-01-05T14:34:55;2.45;;;1.55;;
13580;SDS011;6861;46.170;7.222;2023-01-05T14:37:31;4.32;;;1.90;;
13580;SDS011;6861;46.170;7.222;2023-01-05T14:40:12;2.33;;;1.63;;
13580;SDS011;6861;46.170;7.222;2023-01-05T14:42:47;4.70;;;2.45;;
13580;SDS011;6861;46.170;7.222;2023-01-05T14:45:20;4.50;;;2.15;;
13580;SDS011;6861;46.170;7.222;2023-01-05T14:50:28;4.18;;;2.95;;
13580;SDS011;6861;46.170;7.222;2023-01-05T14:53:01;3.58;;;2.90;;
13580;SDS011;6861;46.170;7.222;2023-01-05T14:55:36;3.75;;;3.30;;
13580;SDS011;6861;46.170;7.222;2023-01-05T14:58:09;4.85;;;3.28;;
13580;SDS011;6861;46.170;7.222;2023-01-05T15:00:41;4.50;;;3.22;;
13580;SDS011;6861;46.170;7.222;2023-01-05T15:03:15;4.82;;;3.05;;
13580;SDS011;6861;46.170;7.222;2023-01-05T15:05:51;3.97;;;2.97;;
13580;SDS011;6861;46.170;7.222;2023-01-05T15:08:30;3.58;;;1.77;;
13580;SDS011;6861;46.170;7.222;2023-01-05T15:11:14;2.90;;;1.60;;
13580;SDS011;6861;46.170;7.222;2023-01-05T15:13:59;2.03;;;1.50;;
13580;SDS011;6861;46.170;7.222;2023-01-05T15:19:50;2.45;;;1.30;;
13580;SDS011;6861;46.170;7.222;2023-01-05T15:22:40;2.85;;;1.42;;
13580;SDS011;6861;46.170;7.222;2023-01-05T15:25:27;2.65;;;1.70;;
13580;SDS011;6861;46.170;7.222;2023-01-05T15:31:32;3.20;;;1.20;;
13580;SDS011;6861;46.170;7.222;2023-01-05T15:34:10;1.42;;;1.15;;
13580;SDS011;6861;46.170;7.222;2023-01-05T15:36:47;2.08;;;1.25;;
13580;SDS011;6861;46.170;7.222;2023-01-05T15:39:24;1.33;;;1.10;;
13580;SDS011;6861;46.170;7.222;2023-01-05T15:41:55;3.72;;;1.73;;
13580;SDS011;6861;46.170;7.222;2023-01-05T15:44:32;1.95;;;1.50;;
13580;SDS011;6861;46.170;7.222;2023-01-05T15:47:03;1.95;;;1.30;;
13580;SDS011;6861;46.170;7.222;2023-01-05T15:49:36;2.70;;;1.20;;
13580;SDS011;6861;46.170;7.222;2023-01-05T15:52:07;2.55;;;1.80;;
13580;SDS011;6861;46.170;7.222;2023-01-05T15:54:56;1.80;;;1.33;;
13580;SDS011;6861;46.170;7.222;2023-01-05T15:57:26;1.30;;;1.20;;
13580;SDS011;6861;46.170;7.222;2023-01-05T15:59:54;1.83;;;1.30;;
13580;SDS011;6861;46.170;7.222;2023-01-05T16:02:24;1.58;;;1.05;;
13580;SDS011;6861;46.170;7.222;2023-01-05T16:05:09;1.55;;;1.27;;
13580;SDS011;6861;46.170;7.222;2023-01-05T16:07:39;2.20;;;1.00;;
13580;SDS011;6861;46.170;7.222;2023-01-05T16:10:18;1.60;;;1.30;;
13580;SDS011;6861;46.170;7.222;2023-01-05T16:12:48;3.78;;;1.77;;
13580;SDS011;6861;46.170;7.222;2023-01-05T16:15:19;2.63;;;1.85;;
13580;SDS011;6861;46.170;7.222;2023-01-05T16:17:49;7.35;;;2.13;;
13580;SDS011;6861;46.170;7.222;2023-01-05T16:20:20;1.92;;;1.67;;
13580;SDS011;6861;46.170;7.222;2023-01-05T16:22:53;3.25;;;1.70;;
13580;SDS011;6861;46.170;7.222;2023-01-05T16:25:36;2.03;;;1.45;;